sensor_id;sensor_type;location;lat;lon;timestamp;pressure;altitude;pressure_sealevel;temperature;humidity
26823;BME280;14852;51.910;8.878;2023-02-28T00:00:25;101193.13;;;2.60;48.26
26823;BME280;14852;51.910;8.878;2023-02-28T00:02:51;101194.00;;;2.60;48.21
26823;BME280;14852;51.910;8.878;2023-02-28T00:05:21;101188.84;;;2.59;48.38
26823;BME280;14852;51.910;8.878;2023-02-28T00:07:48;101190.56;;;2.58;48.20
26823;BME280;14852;51.910;8.878;2023-02-28T00:10:18;101182.88;;;2.60;48.61
26823;BME280;14852;51.910;8.878;2023-02-28T00:12:47;101187.16;;;2.64;48.53
26823;BME280;14852;51.910;8.878;2023-02-28T00:15:13;101184.59;;;2.68;48.25
26823;BME280;14852;51.910;8.878;2023-02-28T00:17:39;101192.31;;;2.71;48.18
26823;BME280;14852;51.910;8.878;2023-02-28T00:20:06;101191.47;;;2.74;48.50
26823;BME280;14852;51.910;8.878;2023-02-28T00:22:39;101186.34;;;2.74;48.47
26823;BME280;14852;51.910;8.878;2023-02-28T00:25:06;101188.03;;;2.75;48.32
26823;BME280;14852;51.910;8.878;2023-02-28T00:27:34;101190.63;;;2.75;48.29
26823;BME280;14852;51.910;8.878;2023-02-28T00:30:00;101182.06;;;2.76;48.39
26823;BME280;14852;51.910;8.878;2023-02-28T00:32:26;101185.50;;;2.76;48.19
26823;BME280;14852;51.910;8.878;2023-02-28T00:34:52;101182.91;;;2.76;48.30
26823;BME280;14852;51.910;8.878;2023-02-28T00:37:18;101180.34;;;2.76;48.65
26823;BME280;14852;51.910;8.878;2023-02-28T00:39:44;101182.06;;;2.76;48.54
26823;BME280;14852;51.910;8.878;2023-02-28T00:42:09;101180.34;;;2.75;48.41
26823;BME280;14852;51.910;8.878;2023-02-28T00:44:35;101175.19;;;2.72;48.59
26823;BME280;14852;51.910;8.878;2023-02-28T00:47:01;101182.03;;;2.70;48.58
26823;BME280;14852;51.910;8.878;2023-02-28T00:49:27;101176.06;;;2.65;48.76
26823;BME280;14852;51.910;8.878;2023-02-28T00:51:54;101177.72;;;2.60;48.69
26823;BME280;14852;51.910;8.878;2023-02-28T00:54:21;101178.56;;;2.55;49.03
26823;BME280;14852;51.910;8.878;2023-02-28T00:56:47;101182.84;;;2.52;48.99
26823;BME280;14852;51.910;8.878;2023-02-28T00:59:14;101187.97;;;2.47;49.11
26823;BME280;14852;51.910;8.878;2023-02-28T01:01:41;101187.94;;;2.43;49.19
26823;BME280;14852;51.910;8.878;2023-02-28T01:04:07;101184.50;;;2.35;49.31
26823;BME280;14852;51.910;8.878;2023-02-28T01:06:35;101180.22;;;2.29;49.15
26823;BME280;14852;51.910;8.878;2023-02-28T01:09:03;101185.31;;;2.26;49.31
26823;BME280;14852;51.910;8.878;2023-02-28T01:11:30;101181.88;;;2.23;49.41
26823;BME280;14852;51.910;8.878;2023-02-28T01:13:56;101187.84;;;2.17;49.52
26823;BME280;14852;51.910;8.878;2023-02-28T01:16:22;101175.00;;;2.14;49.58
26823;BME280;14852;51.910;8.878;2023-02-28T01:18:48;101180.94;;;2.10;49.37
26823;BME280;14852;51.910;8.878;2023-02-28T01:21:17;101177.53;;;2.06;49.68
26823;BME280;14852;51.910;8.878;2023-02-28T01:23:44;101180.94;;;2.02;49.34
26823;BME280;14852;51.910;8.878;2023-02-28T01:26:22;101180.88;;;1.98;49.60
26823;BME280;14852;51.910;8.878;2023-02-28T01:28:50;101181.75;;;1.94;49.54
26823;BME280;14852;51.910;8.878;2023-02-28T01:31:17;101183.44;;;1.92;49.60
26823;BME280;14852;51.910;8.878;2023-02-28T01:33:44;101185.13;;;1.90;49.72
26823;BME280;14852;51.910;8.878;2023-02-28T01:36:17;101191.97;;;1.89;49.62
26823;BME280;14852;51.910;8.878;2023-02-28T01:38:43;101188.53;;;1.90;49.78
26823;BME280;14852;51.910;8.878;2023-02-28T01:41:17;101193.66;;;1.84;49.61
26823;BME280;14852;51.910;8.878;2023-02-28T01:46:09;101187.59;;;1.76;49.65
26823;BME280;14852;51.910;8.878;2023-02-28T01:48:40;101184.16;;;1.71;49.59
26823;BME280;14852;51.910;8.878;2023-02-28T01:51:14;101188.41;;;1.67;49.87
26823;BME280;14852;51.910;8.878;2023-02-28T01:53:49;101188.38;;;1.64;49.68
26823;BME280;14852;51.910;8.878;2023-02-28T01:56:22;101191.78;;;1.60;49.97
26823;BME280;14852;51.910;8.878;2023-02-28T01:58:51;101188.31;;;1.54;50.02
26823;BME280;14852;51.910;8.878;2023-02-28T02:01:19;101183.16;;;1.48;50.09
26823;BME280;14852;51.910;8.878;2023-02-28T02:03:53;101184.78;;;1.41;50.25
26823;BME280;14852;51.910;8.878;2023-02-28T02:06:45;101182.22;;;1.38;50.35
26823;BME280;14852;51.910;8.878;2023-02-28T02:09:13;101177.88;;;1.31;50.08
26823;BME280;14852;51.910;8.878;2023-02-28T02:11:42;101173.59;;;1.28;50.05
26823;BME280;14852;51.910;8.878;2023-02-28T02:17:39;101182.06;;;1.20;50.54
26823;BME280;14852;51.910;8.878;2023-02-28T02:20:51;101182.88;;;1.16;50.30
26823;BME280;14852;51.910;8.878;2023-02-28T02:27:15;101180.25;;;1.03;50.20
26823;BME280;14852;51.910;8.878;2023-02-28T02:33:06;101182.69;;;0.91;50.46
26823;BME280;14852;51.910;8.878;2023-02-28T02:35:52;101182.59;;;0.85;50.42
26823;BME280;14852;51.910;8.878;2023-02-28T02:38:36;101179.16;;;0.82;50.25
26823;BME280;14852;51.910;8.878;2023-02-28T02:46:29;101172.28;;;0.76;50.15
26823;BME280;14852;51.910;8.878;2023-02-28T02:49:01;101175.63;;;0.70;50.11
26823;BME280;14852;51.910;8.878;2023-02-28T02:51:31;101176.44;;;0.65;50.48
26823;BME280;14852;51.910;8.878;2023-02-28T02:54:11;101172.97;;;0.61;50.36
26823;BME280;14852;51.910;8.878;2023-02-28T02:56:43;101175.50;;;0.57;50.57
26823;BME280;14852;51.910;8.878;2023-02-28T02:59:13;101171.19;;;0.53;50.27
26823;BME280;14852;51.910;8.878;2023-02-28T03:01:42;101176.25;;;0.50;50.64
26823;BME280;14852;51.910;8.878;2023-02-28T03:04:12;101189.03;;;0.50;50.62
26823;BME280;14852;51.910;8.878;2023-02-28T03:06:40;101181.34;;;0.45;50.48
26823;BME280;14852;51.910;8.878;2023-02-28T03:09:06;101183.88;;;0.44;50.39
26823;BME280;14852;51.910;8.878;2023-02-28T03:11:32;101190.66;;;0.42;50.46
26823;BME280;14852;51.910;8.878;2023-02-28T03:14:25;101188.94;;;0.41;50.91
26823;BME280;14852;51.910;8.878;2023-02-28T03:20:41;101183.72;;;0.31;50.76
26823;BME280;14852;51.910;8.878;2023-02-28T03:23:28;101188.78;;;0.27;50.49
26823;BME280;14852;51.910;8.878;2023-02-28T03:26:04;101187.03;;;0.23;50.73
26823;BME280;14852;51.910;8.878;2023-02-28T03:28:44;101192.97;;;0.20;50.65
26823;BME280;14852;51.910;8.878;2023-02-28T03:31:32;101188.69;;;0.19;50.78
26823;BME280;14852;51.910;8.878;2023-02-28T03:34:12;101184.38;;;0.17;50.48
26823;BME280;14852;51.910;8.878;2023-02-28T03:36:49;101186.91;;;0.14;50.52
26823;BME280;14852;51.910;8.878;2023-02-28T03:39:24;101188.53;;;0.07;50.59
26823;BME280;14852;51.910;8.878;2023-02-28T03:42:04;101185.03;;;0.00;50.82
26823;BME280;14852;51.910;8.878;2023-02-28T03:44:36;101183.28;;;-0.04;50.78
26823;BME280;14852;51.910;8.878;2023-02-28T03:47:54;101180.69;;;-0.05;51.19
26823;BME280;14852;51.910;8.878;2023-02-28T03:50:43;101173.00;;;-0.07;50.92
26823;BME280;14852;51.910;8.878;2023-02-28T03:59:17;101179.78;;;-0.12;51.05
26823;BME280;14852;51.910;8.878;2023-02-28T04:01:47;101168.63;;;-0.17;50.85
26823;BME280;14852;51.910;8.878;2023-02-28T04:04:15;101172.81;;;-0.20;51.05
26823;BME280;14852;51.910;8.878;2023-02-28T04:06:41;101177.94;;;-0.20;50.94
26823;BME280;14852;51.910;8.878;2023-02-28T04:09:11;101175.34;;;-0.22;50.92
26823;BME280;14852;51.910;8.878;2023-02-28T04:11:50;101175.34;;;-0.22;51.11
26823;BME280;14852;51.910;8.878;2023-02-28T04:14:21;101180.44;;;-0.25;50.92
26823;BME280;14852;51.910;8.878;2023-02-28T04:16:47;101182.13;;;-0.25;51.05
26823;BME280;14852;51.910;8.878;2023-02-28T04:19:14;101182.91;;;-0.29;51.06
26823;BME280;14852;51.910;8.878;2023-02-28T04:21:52;101180.31;;;-0.32;51.00
26823;BME280;14852;51.910;8.878;2023-02-28T04:24:27;101184.53;;;-0.34;51.06
26823;BME280;14852;51.910;8.878;2023-02-28T04:26:56;101176.88;;;-0.36;51.10
26823;BME280;14852;51.910;8.878;2023-02-28T04:29:28;101181.97;;;-0.36;50.90
26823;BME280;14852;51.910;8.878;2023-02-28T04:31:55;101184.50;;;-0.38;50.90
26823;BME280;14852;51.910;8.878;2023-02-28T04:34:23;101183.66;;;-0.38;51.11
26823;BME280;14852;51.910;8.878;2023-02-28T04:36:50;101181.09;;;-0.38;51.09
26823;BME280;14852;51.910;8.878;2023-02-28T04:39:17;101176.81;;;-0.39;51.11
26823;BME280;14852;51.910;8.878;2023-02-28T04:41:45;101185.31;;;-0.40;51.17
26823;BME280;14852;51.910;8.878;2023-02-28T04:44:11;101183.59;;;-0.41;50.85
26823;BME280;14852;51.910;8.878;2023-02-28T04:46:36;101183.56;;;-0.43;51.04
26823;BME280;14852;51.910;8.878;2023-02-28T04:49:02;101182.72;;;-0.43;51.00
26823;BME280;14852;51.910;8.878;2023-02-28T04:51:29;101185.22;;;-0.45;51.17
26823;BME280;14852;51.910;8.878;2023-02-28T04:53:55;101179.22;;;-0.50;51.02
26823;BME280;14852;51.910;8.878;2023-02-28T04:56:21;101186.84;;;-0.51;50.90
26823;BME280;14852;51.910;8.878;2023-02-28T04:58:47;101179.22;;;-0.50;51.27
26823;BME280;14852;51.910;8.878;2023-02-28T05:01:24;101182.59;;;-0.51;51.15
26823;BME280;14852;51.910;8.878;2023-02-28T05:03:52;101178.31;;;-0.52;51.13
26823;BME280;14852;51.910;8.878;2023-02-28T05:06:19;101182.56;;;-0.52;51.29
26823;BME280;14852;51.910;8.878;2023-02-28T05:08:46;101186.81;;;-0.53;51.27
26823;BME280;14852;51.910;8.878;2023-02-28T05:11:19;101184.25;;;-0.53;51.03
26823;BME280;14852;51.910;8.878;2023-02-28T05:13:45;101185.13;;;-0.52;51.01
26823;BME280;14852;51.910;8.878;2023-02-28T05:16:11;101190.22;;;-0.54;50.83
26823;BME280;14852;51.910;8.878;2023-02-28T05:18:38;101192.69;;;-0.57;51.27
26823;BME280;14852;51.910;8.878;2023-02-28T05:21:04;101188.44;;;-0.59;51.07
26823;BME280;14852;51.910;8.878;2023-02-28T05:23:29;101185.00;;;-0.61;51.08
26823;BME280;14852;51.910;8.878;2023-02-28T05:25:55;101184.13;;;-0.62;51.40
26823;BME280;14852;51.910;8.878;2023-02-28T05:28:21;101190.06;;;-0.63;51.00
26823;BME280;14852;51.910;8.878;2023-02-28T05:30:50;101189.22;;;-0.63;51.24
26823;BME280;14852;51.910;8.878;2023-02-28T05:33:16;101192.53;;;-0.67;51.15
26823;BME280;14852;51.910;8.878;2023-02-28T05:35:42;101199.34;;;-0.69;51.28
26823;BME280;14852;51.910;8.878;2023-02-28T05:38:11;101204.31;;;-0.76;51.33
26823;BME280;14852;51.910;8.878;2023-02-28T05:40:38;101202.53;;;-0.81;51.36
26823;BME280;14852;51.910;8.878;2023-02-28T05:43:05;101200.78;;;-0.84;51.22
26823;BME280;14852;51.910;8.878;2023-02-28T05:45:31;101209.28;;;-0.85;51.37
26823;BME280;14852;51.910;8.878;2023-02-28T05:47:57;101204.16;;;-0.86;51.44
26823;BME280;14852;51.910;8.878;2023-02-28T05:50:23;101204.97;;;-0.87;51.50
26823;BME280;14852;51.910;8.878;2023-02-28T05:52:52;101204.13;;;-0.88;51.24
26823;BME280;14852;51.910;8.878;2023-02-28T05:55:18;101210.91;;;-0.88;51.48
26823;BME280;14852;51.910;8.878;2023-02-28T05:57:44;101213.47;;;-0.88;51.35
26823;BME280;14852;51.910;8.878;2023-02-28T06:00:11;101210.00;;;-0.90;51.59
26823;BME280;14852;51.910;8.878;2023-02-28T06:02:40;101215.94;;;-0.91;51.21
26823;BME280;14852;51.910;8.878;2023-02-28T06:05:16;101213.41;;;-0.91;51.21
26823;BME280;14852;51.910;8.878;2023-02-28T06:07:42;101208.25;;;-0.94;51.47
26823;BME280;14852;51.910;8.878;2023-02-28T06:10:10;101216.75;;;-0.95;51.32
26823;BME280;14852;51.910;8.878;2023-02-28T06:12:37;101214.16;;;-0.97;51.27
26823;BME280;14852;51.910;8.878;2023-02-28T06:15:03;101218.41;;;-0.97;51.40
26823;BME280;14852;51.910;8.878;2023-02-28T06:17:29;101221.84;;;-0.95;51.36
26823;BME280;14852;51.910;8.878;2023-02-28T06:19:55;101226.09;;;-0.96;51.42
26823;BME280;14852;51.910;8.878;2023-02-28T06:22:21;101222.72;;;-0.95;51.08
26823;BME280;14852;51.910;8.878;2023-02-28T06:24:47;101218.50;;;-0.93;51.17
26823;BME280;14852;51.910;8.878;2023-02-28T06:27:13;101226.19;;;-0.90;51.25
26823;BME280;14852;51.910;8.878;2023-02-28T06:29:38;101233.94;;;-0.85;51.18
26823;BME280;14852;51.910;8.878;2023-02-28T06:32:07;101232.50;;;-0.68;50.74
26823;BME280;14852;51.910;8.878;2023-02-28T06:34:32;101227.25;;;-0.26;50.11
26823;BME280;14852;51.910;8.878;2023-02-28T06:36:59;101231.25;;;0.17;49.12
26823;BME280;14852;51.910;8.878;2023-02-28T06:39:29;101231.53;;;0.39;48.71
26823;BME280;14852;51.910;8.878;2023-02-28T06:41:55;101234.28;;;0.54;48.60
26823;BME280;14852;51.910;8.878;2023-02-28T06:44:21;101241.41;;;0.82;48.25
26823;BME280;14852;51.910;8.878;2023-02-28T06:46:47;101228.00;;;1.01;47.89
26823;BME280;14852;51.910;8.878;2023-02-28T06:49:13;101235.72;;;1.09;47.83
26823;BME280;14852;51.910;8.878;2023-02-28T06:51:42;101240.78;;;1.04;48.04
26823;BME280;14852;51.910;8.878;2023-02-28T06:54:10;101239.84;;;0.92;48.48
26823;BME280;14852;51.910;8.878;2023-02-28T06:56:36;101249.16;;;0.87;48.50
26823;BME280;14852;51.910;8.878;2023-02-28T06:59:03;101239.09;;;1.03;48.45
26823;BME280;14852;51.910;8.878;2023-02-28T07:01:29;101245.06;;;1.02;48.58
26823;BME280;14852;51.910;8.878;2023-02-28T07:03:57;101248.56;;;1.12;48.56
26823;BME280;14852;51.910;8.878;2023-02-28T07:06:22;101255.69;;;1.43;48.52
26823;BME280;14852;51.910;8.878;2023-02-28T07:08:50;101250.88;;;1.88;47.78
26823;BME280;14852;51.910;8.878;2023-02-28T07:11:16;101254.50;;;2.20;47.18
26823;BME280;14852;51.910;8.878;2023-02-28T07:13:42;101258.94;;;2.48;46.80
26823;BME280;14852;51.910;8.878;2023-02-28T07:16:10;101250.44;;;2.60;47.00
26823;BME280;14852;51.910;8.878;2023-02-28T07:18:37;101248.75;;;2.65;46.94
26823;BME280;14852;51.910;8.878;2023-02-28T07:21:09;101249.59;;;2.64;47.43
26823;BME280;14852;51.910;8.878;2023-02-28T07:23:35;101252.16;;;2.61;47.36
26823;BME280;14852;51.910;8.878;2023-02-28T07:26:04;101253.00;;;2.60;47.81
26823;BME280;14852;51.910;8.878;2023-02-28T07:28:30;101257.25;;;2.53;47.74
26823;BME280;14852;51.910;8.878;2023-02-28T07:30:56;101259.78;;;2.41;48.17
26823;BME280;14852;51.910;8.878;2023-02-28T07:33:21;101257.94;;;2.24;48.85
26823;BME280;14852;51.910;8.878;2023-02-28T07:35:48;101264.69;;;2.09;49.22
26823;BME280;14852;51.910;8.878;2023-02-28T07:38:13;101257.03;;;2.11;49.69
26823;BME280;14852;51.910;8.878;2023-02-28T07:40:39;101245.44;;;3.98;47.38
26823;BME280;14852;51.910;8.878;2023-02-28T07:43:05;101242.50;;;6.07;43.53
26823;BME280;14852;51.910;8.878;2023-02-28T07:45:32;101238.59;;;6.48;42.69
26823;BME280;14852;51.910;8.878;2023-02-28T07:48:00;101231.41;;;7.31;41.77
26823;BME280;14852;51.910;8.878;2023-02-28T07:50:26;101232.31;;;7.82;41.55
26823;BME280;14852;51.910;8.878;2023-02-28T07:52:58;101233.47;;;7.64;41.79
26823;BME280;14852;51.910;8.878;2023-02-28T07:55:23;101231.59;;;7.19;43.06
26823;BME280;14852;51.910;8.878;2023-02-28T07:57:49;101228.63;;;6.88;43.74
26823;BME280;14852;51.910;8.878;2023-02-28T08:00:15;101240.03;;;6.70;44.24
26823;BME280;14852;51.910;8.878;2023-02-28T08:02:41;101245.34;;;6.58;44.62
26823;BME280;14852;51.910;8.878;2023-02-28T08:05:07;101235.66;;;6.75;44.78
26823;BME280;14852;51.910;8.878;2023-02-28T08:07:33;101230.28;;;7.98;42.97
26823;BME280;14852;51.910;8.878;2023-02-28T08:09:59;101230.91;;;8.97;41.54
26823;BME280;14852;51.910;8.878;2023-02-28T08:12:25;101226.41;;;9.03;40.95
26823;BME280;14852;51.910;8.878;2023-02-28T08:14:51;101234.38;;;8.96;41.40
26823;BME280;14852;51.910;8.878;2023-02-28T08:17:17;101232.13;;;8.81;41.61
26823;BME280;14852;51.910;8.878;2023-02-28T08:19:45;101230.88;;;8.57;42.12
26823;BME280;14852;51.910;8.878;2023-02-28T08:22:11;101228.75;;;8.34;42.96
26823;BME280;14852;51.910;8.878;2023-02-28T08:24:37;101235.19;;;8.13;43.33
26823;BME280;14852;51.910;8.878;2023-02-28T08:27:03;101235.41;;;8.01;43.46
26823;BME280;14852;51.910;8.878;2023-02-28T08:29:29;101239.03;;;7.91;43.66
26823;BME280;14852;51.910;8.878;2023-02-28T08:31:55;101232.22;;;7.85;44.16
26823;BME280;14852;51.910;8.878;2023-02-28T08:34:22;101240.56;;;8.03;43.66
26823;BME280;14852;51.910;8.878;2023-02-28T08:36:48;101242.78;;;8.22;43.36
26823;BME280;14852;51.910;8.878;2023-02-28T08:39:14;101237.53;;;8.25;43.43
26823;BME280;14852;51.910;8.878;2023-02-28T08:41:41;101234.31;;;8.13;43.79
26823;BME280;14852;51.910;8.878;2023-02-28T08:44:07;101238.16;;;7.92;44.06
26823;BME280;14852;51.910;8.878;2023-02-28T08:46:33;101242.03;;;7.68;44.54
26823;BME280;14852;51.910;8.878;2023-02-28T08:48:59;101234.59;;;7.48;44.80
26823;BME280;14852;51.910;8.878;2023-02-28T08:51:27;101235.00;;;7.22;45.13
26823;BME280;14852;51.910;8.878;2023-02-28T08:53:57;101243.00;;;7.04;45.42
26823;BME280;14852;51.910;8.878;2023-02-28T08:56:23;101250.13;;;6.88;45.77
26823;BME280;14852;51.910;8.878;2023-02-28T08:58:50;101260.59;;;6.79;45.96
26823;BME280;14852;51.910;8.878;2023-02-28T09:01:26;101254.66;;;6.70;45.96
26823;BME280;14852;51.910;8.878;2023-02-28T09:03:53;101247.88;;;6.63;45.95
26823;BME280;14852;51.910;8.878;2023-02-28T09:06:22;101246.25;;;6.56;46.16
26823;BME280;14852;51.910;8.878;2023-02-28T09:08:48;101250.56;;;6.55;46.00
26823;BME280;14852;51.910;8.878;2023-02-28T09:11:15;101245.28;;;6.66;45.80
26823;BME280;14852;51.910;8.878;2023-02-28T09:13:41;101247.69;;;6.78;45.70
26823;BME280;14852;51.910;8.878;2023-02-28T09:16:11;101246.00;;;6.77;45.47
26823;BME280;14852;51.910;8.878;2023-02-28T09:18:39;101245.25;;;6.67;45.88
26823;BME280;14852;51.910;8.878;2023-02-28T09:21:11;101246.19;;;6.59;45.92
26823;BME280;14852;51.910;8.878;2023-02-28T09:23:40;101249.78;;;6.48;45.84
26823;BME280;14852;51.910;8.878;2023-02-28T09:26:11;101248.88;;;6.51;46.02
26823;BME280;14852;51.910;8.878;2023-02-28T09:28:38;101254.75;;;6.64;45.67
26823;BME280;14852;51.910;8.878;2023-02-28T09:31:04;101252.16;;;6.67;45.77
26823;BME280;14852;51.910;8.878;2023-02-28T09:33:30;101254.59;;;6.79;45.51
26823;BME280;14852;51.910;8.878;2023-02-28T09:36:00;101245.69;;;7.00;45.08
26823;BME280;14852;51.910;8.878;2023-02-28T09:38:28;101254.88;;;7.17;44.75
26823;BME280;14852;51.910;8.878;2023-02-28T09:40:58;101252.19;;;7.26;44.47
26823;BME280;14852;51.910;8.878;2023-02-28T09:43:29;101241.97;;;7.17;44.83
26823;BME280;14852;51.910;8.878;2023-02-28T09:49:05;101240.19;;;7.75;44.11
26823;BME280;14852;51.910;8.878;2023-02-28T09:54:22;101245.53;;;8.59;42.71
26823;BME280;14852;51.910;8.878;2023-02-28T09:57:37;101240.41;;;8.10;43.08
26823;BME280;14852;51.910;8.878;2023-02-28T10:00:22;101244.16;;;7.95;43.23
26823;BME280;14852;51.910;8.878;2023-02-28T10:03:25;101242.38;;;7.97;43.03
26823;BME280;14852;51.910;8.878;2023-02-28T10:06:07;101247.50;;;8.00;43.27
26823;BME280;14852;51.910;8.878;2023-02-28T10:09:03;101250.66;;;7.69;44.01
26823;BME280;14852;51.910;8.878;2023-02-28T10:11:33;101247.53;;;7.48;44.26
26823;BME280;14852;51.910;8.878;2023-02-28T10:14:22;101251.09;;;7.41;44.29
26823;BME280;14852;51.910;8.878;2023-02-28T10:17:17;101245.91;;;7.41;44.20
26823;BME280;14852;51.910;8.878;2023-02-28T10:19:58;101250.38;;;7.32;44.16
26823;BME280;14852;51.910;8.878;2023-02-28T10:22:57;101241.63;;;7.39;43.95
26823;BME280;14852;51.910;8.878;2023-02-28T10:25:28;101246.44;;;7.61;43.93
26823;BME280;14852;51.910;8.878;2023-02-28T10:28:01;101240.94;;;7.81;43.88
26823;BME280;14852;51.910;8.878;2023-02-28T10:30:31;101234.72;;;7.91;43.62
26823;BME280;14852;51.910;8.878;2023-02-28T10:32:56;101244.56;;;7.73;43.65
26823;BME280;14852;51.910;8.878;2023-02-28T10:35:25;101240.38;;;7.62;43.93
26823;BME280;14852;51.910;8.878;2023-02-28T10:38:00;101235.41;;;7.50;44.30
26823;BME280;14852;51.910;8.878;2023-02-28T10:40:34;101243.31;;;7.43;43.98
26823;BME280;14852;51.910;8.878;2023-02-28T10:43:16;101240.19;;;7.21;44.28
26823;BME280;14852;51.910;8.878;2023-02-28T10:45:59;101239.53;;;7.07;44.36
26823;BME280;14852;51.910;8.878;2023-02-28T10:48:33;101242.97;;;7.09;44.19
26823;BME280;14852;51.910;8.878;2023-02-28T10:51:00;101234.44;;;7.04;44.41
26823;BME280;14852;51.910;8.878;2023-02-28T10:53:49;101236.06;;;7.08;44.12
26823;BME280;14852;51.910;8.878;2023-02-28T10:56:19;101242.41;;;6.87;44.41
26823;BME280;14852;51.910;8.878;2023-02-28T10:59:26;101246.91;;;6.71;44.60
26823;BME280;14852;51.910;8.878;2023-02-28T11:01:52;101241.66;;;6.80;44.79
26823;BME280;14852;51.910;8.878;2023-02-28T11:07:21;101236.78;;;7.17;44.56
26823;BME280;14852;51.910;8.878;2023-02-28T11:09:53;101229.84;;;7.21;44.69
26823;BME280;14852;51.910;8.878;2023-02-28T11:12:31;101228.75;;;7.37;44.09
26823;BME280;14852;51.910;8.878;2023-02-28T11:15:07;101225.13;;;7.49;44.02
26823;BME280;14852;51.910;8.878;2023-02-28T11:17:44;101231.06;;;7.54;44.36
26823;BME280;14852;51.910;8.878;2023-02-28T11:20:22;101218.13;;;7.52;43.92
26823;BME280;14852;51.910;8.878;2023-02-28T11:22:50;101220.22;;;7.31;44.00
26823;BME280;14852;51.910;8.878;2023-02-28T11:25:31;101225.78;;;7.05;44.30
26823;BME280;14852;51.910;8.878;2023-02-28T11:28:01;101236.34;;;6.89;44.03
26823;BME280;14852;51.910;8.878;2023-02-28T11:30:36;101212.41;;;6.77;44.67
26823;BME280;14852;51.910;8.878;2023-02-28T11:35:48;101208.88;;;6.81;44.95
26823;BME280;14852;51.910;8.878;2023-02-28T11:38:14;101213.88;;;6.93;44.87
26823;BME280;14852;51.910;8.878;2023-02-28T11:40:59;101204.06;;;7.16;45.36
26823;BME280;14852;51.910;8.878;2023-02-28T11:46:50;101208.59;;;7.57;44.39
26823;BME280;14852;51.910;8.878;2023-02-28T11:55:16;101193.25;;;7.96;43.43
26823;BME280;14852;51.910;8.878;2023-02-28T11:58:02;101188.00;;;7.97;43.45
26823;BME280;14852;51.910;8.878;2023-02-28T12:00:57;101183.66;;;7.99;43.32
26823;BME280;14852;51.910;8.878;2023-02-28T12:09:36;101172.38;;;8.04;42.07
26823;BME280;14852;51.910;8.878;2023-02-28T12:21:40;101159.00;;;7.82;40.30
26823;BME280;14852;51.910;8.878;2023-02-28T12:24:39;101155.00;;;7.64;40.80
26823;BME280;14852;51.910;8.878;2023-02-28T12:27:13;101157.81;;;7.52;41.34
26823;BME280;14852;51.910;8.878;2023-02-28T12:29:54;101152.38;;;7.66;41.46
26823;BME280;14852;51.910;8.878;2023-02-28T12:32:35;101155.66;;;7.75;41.07
26823;BME280;14852;51.910;8.878;2023-02-28T12:40:42;101144.19;;;7.88;40.53
26823;BME280;14852;51.910;8.878;2023-02-28T12:43:09;101150.28;;;7.86;40.69
26823;BME280;14852;51.910;8.878;2023-02-28T12:45:57;101151.28;;;7.79;40.99
26823;BME280;14852;51.910;8.878;2023-02-28T12:48:37;101147.22;;;7.66;40.67
26823;BME280;14852;51.910;8.878;2023-02-28T12:51:06;101145.63;;;7.58;40.68
26823;BME280;14852;51.910;8.878;2023-02-28T12:59:48;101129.38;;;7.96;40.20
26823;BME280;14852;51.910;8.878;2023-02-28T13:02:49;101127.50;;;8.05;39.81
26823;BME280;14852;51.910;8.878;2023-02-28T13:09:05;101131.94;;;7.96;39.84
26823;BME280;14852;51.910;8.878;2023-02-28T13:11:49;101123.25;;;8.00;39.88
26823;BME280;14852;51.910;8.878;2023-02-28T13:17:01;101111.56;;;7.81;40.01
26823;BME280;14852;51.910;8.878;2023-02-28T13:19:32;101116.16;;;7.66;39.54
26823;BME280;14852;51.910;8.878;2023-02-28T13:22:01;101114.75;;;7.49;40.16
26823;BME280;14852;51.910;8.878;2023-02-28T13:24:55;101120.88;;;7.44;40.48
26823;BME280;14852;51.910;8.878;2023-02-28T13:27:38;101116.63;;;7.41;40.18
26823;BME280;14852;51.910;8.878;2023-02-28T13:36:27;101109.41;;;7.58;40.00
26823;BME280;14852;51.910;8.878;2023-02-28T13:38:59;101105.09;;;7.59;39.57
26823;BME280;14852;51.910;8.878;2023-02-28T13:44:20;101099.81;;;7.63;40.03
26823;BME280;14852;51.910;8.878;2023-02-28T14:11:42;101082.53;;;7.67;39.32
26823;BME280;14852;51.910;8.878;2023-02-28T14:15:23;101081.59;;;7.71;39.15
26823;BME280;14852;51.910;8.878;2023-02-28T14:17:16;101079.09;;;7.65;39.43
26823;BME280;14852;51.910;8.878;2023-02-28T14:19:46;101066.22;;;7.62;39.26
26823;BME280;14852;51.910;8.878;2023-02-28T14:25:39;101072.19;;;7.66;39.31
26823;BME280;14852;51.910;8.878;2023-02-28T14:28:45;101075.66;;;7.64;39.42
26823;BME280;14852;51.910;8.878;2023-02-28T14:31:22;101066.28;;;7.60;39.60
26823;BME280;14852;51.910;8.878;2023-02-28T14:36:50;101068.88;;;7.60;39.51
26823;BME280;14852;51.910;8.878;2023-02-28T14:39:25;101068.00;;;7.60;39.53
26823;BME280;14852;51.910;8.878;2023-02-28T14:41:51;101068.97;;;7.54;39.23
26823;BME280;14852;51.910;8.878;2023-02-28T14:44:22;101065.47;;;7.57;39.43
26823;BME280;14852;51.910;8.878;2023-02-28T14:46:52;101060.31;;;7.55;39.43
26823;BME280;14852;51.910;8.878;2023-02-28T14:49:31;101071.56;;;7.54;39.60
26823;BME280;14852;51.910;8.878;2023-02-28T14:52:23;101067.38;;;7.49;39.39
26823;BME280;14852;51.910;8.878;2023-02-28T14:54:58;101070.06;;;7.41;39.64
26823;BME280;14852;51.910;8.878;2023-02-28T14:57:28;101069.28;;;7.38;39.40
26823;BME280;14852;51.910;8.878;2023-02-28T15:00:12;101071.91;;;7.36;39.39
26823;BME280;14852;51.910;8.878;2023-02-28T15:02:39;101067.66;;;7.32;39.08
26823;BME280;14852;51.910;8.878;2023-02-28T15:07:48;101075.47;;;7.29;39.20
26823;BME280;14852;51.910;8.878;2023-02-28T15:10:25;101072.84;;;7.31;39.52
26823;BME280;14852;51.910;8.878;2023-02-28T15:12:57;101072.88;;;7.29;39.35
26823;BME280;14852;51.910;8.878;2023-02-28T15:17:59;101082.50;;;7.21;39.39
26823;BME280;14852;51.910;8.878;2023-02-28T15:20:26;101079.94;;;7.21;39.24
26823;BME280;14852;51.910;8.878;2023-02-28T15:22:53;101091.94;;;7.25;39.60
26823;BME280;14852;51.910;8.878;2023-02-28T15:25:22;101085.09;;;7.21;39.66
26823;BME280;14852;51.910;8.878;2023-02-28T15:27:53;101080.81;;;7.20;39.35